sensor_id;sensor_type;location;lat;lon;timestamp;P1;durP1;ratioP1;P2;durP2;ratioP2
8139;SDS011;4111;50.972;7.072;2022-12-07T00:01:30;23.30;;;17.90;;
8139;SDS011;4111;50.972;7.072;2022-12-07T00:03:59;24.90;;;18.97;;
8139;SDS011;4111;50.972;7.072;2022-12-07T00:06:31;26.07;;;19.30;;
8139;SDS011;4111;50.972;7.072;2022-12-07T00:08:59;24.60;;;18.40;;
8139;SDS011;4111;50.972;7.072;2022-12-07T00:11:26;25.57;;;18.67;;
8139;SDS011;4111;50.972;7.072;2022-12-07T00:13:53;24.93;;;19.10;;
8139;SDS011;4111;50.972;7.072;2022-12-07T00:16:23;27.23;;;18.93;;
8139;SDS011;4111;50.972;7.072;2022-12-07T00:18:51;25.30;;;18.63;;
8139;SDS011;4111;50.972;7.072;2022-12-07T00:21:19;24.03;;;19.53;;
8139;SDS011;4111;50.972;7.072;2022-12-07T00:23:49;26.70;;;19.33;;
8139;SDS011;4111;50.972;7.072;2022-12-07T00:26:18;28.37;;;19.27;;
8139;SDS011;4111;50.972;7.072;2022-12-07T00:28:45;26.67;;;18.87;;
8139;SDS011;4111;50.972;7.072;2022-12-07T00:31:16;23.93;;;19.30;;
8139;SDS011;4111;50.972;7.072;2022-12-07T00:33:45;25.03;;;18.73;;
8139;SDS011;4111;50.972;7.072;2022-12-07T00:36:16;24.00;;;18.90;;
8139;SDS011;4111;50.972;7.072;2022-12-07T00:38:51;27.00;;;19.07;;
8139;SDS011;4111;50.972;7.072;2022-12-07T00:41:19;24.47;;;18.90;;
8139;SDS011;4111;50.972;7.072;2022-12-07T00:43:47;25.07;;;17.93;;
8139;SDS011;4111;50.972;7.072;2022-12-07T00:46:14;25.57;;;19.07;;
8139;SDS011;4111;50.972;7.072;2022-12-07T00:48:42;25.03;;;18.57;;
8139;SDS011;4111;50.972;7.072;2022-12-07T00:51:09;29.47;;;19.43;;
8139;SDS011;4111;50.972;7.072;2022-12-07T00:53:38;27.13;;;19.37;;
8139;SDS011;4111;50.972;7.072;2022-12-07T00:56:07;26.70;;;18.47;;
8139;SDS011;4111;50.972;7.072;2022-12-07T00:58:35;25.10;;;19.07;;
8139;SDS011;4111;50.972;7.072;2022-12-07T01:01:02;24.13;;;18.13;;
8139;SDS011;4111;50.972;7.072;2022-12-07T01:03:30;24.57;;;18.43;;
8139;SDS011;4111;50.972;7.072;2022-12-07T01:05:57;23.00;;;18.33;;
8139;SDS011;4111;50.972;7.072;2022-12-07T01:08:24;24.40;;;17.30;;
8139;SDS011;4111;50.972;7.072;2022-12-07T01:10:59;23.57;;;17.47;;
8139;SDS011;4111;50.972;7.072;2022-12-07T01:13:27;22.27;;;18.20;;
8139;SDS011;4111;50.972;7.072;2022-12-07T01:15:56;24.20;;;17.13;;
8139;SDS011;4111;50.972;7.072;2022-12-07T01:18:29;22.30;;;17.37;;
8139;SDS011;4111;50.972;7.072;2022-12-07T01:23:26;20.37;;;17.00;;
8139;SDS011;4111;50.972;7.072;2022-12-07T01:25:56;23.10;;;17.77;;
8139;SDS011;4111;50.972;7.072;2022-12-07T01:28:24;25.70;;;17.73;;
8139;SDS011;4111;50.972;7.072;2022-12-07T01:33:26;23.70;;;17.77;;
8139;SDS011;4111;50.972;7.072;2022-12-07T01:36:31;29.47;;;17.93;;
8139;SDS011;4111;50.972;7.072;2022-12-07T01:38:55;25.30;;;18.43;;
8139;SDS011;4111;50.972;7.072;2022-12-07T01:41:24;22.70;;;17.93;;
8139;SDS011;4111;50.972;7.072;2022-12-07T01:49:16;26.73;;;18.30;;
8139;SDS011;4111;50.972;7.072;2022-12-07T01:51:47;23.40;;;18.90;;
8139;SDS011;4111;50.972;7.072;2022-12-07T01:54:15;26.83;;;18.87;;
8139;SDS011;4111;50.972;7.072;2022-12-07T01:56:44;26.17;;;19.50;;
8139;SDS011;4111;50.972;7.072;2022-12-07T01:59:16;24.17;;;19.10;;
8139;SDS011;4111;50.972;7.072;2022-12-07T02:01:44;24.23;;;18.37;;
8139;SDS011;4111;50.972;7.072;2022-12-07T02:04:11;25.87;;;18.90;;
8139;SDS011;4111;50.972;7.072;2022-12-07T02:06:38;25.47;;;19.03;;
8139;SDS011;4111;50.972;7.072;2022-12-07T02:09:04;26.13;;;18.83;;
8139;SDS011;4111;50.972;7.072;2022-12-07T02:11:31;27.97;;;20.97;;
8139;SDS011;4111;50.972;7.072;2022-12-07T02:13:58;27.30;;;19.90;;
8139;SDS011;4111;50.972;7.072;2022-12-07T02:19:39;27.13;;;19.20;;
8139;SDS011;4111;50.972;7.072;2022-12-07T02:25:09;26.63;;;20.13;;
8139;SDS011;4111;50.972;7.072;2022-12-07T02:30:48;25.50;;;19.93;;
8139;SDS011;4111;50.972;7.072;2022-12-07T02:33:19;26.00;;;19.87;;
8139;SDS011;4111;50.972;7.072;2022-12-07T02:36:01;25.37;;;19.93;;
8139;SDS011;4111;50.972;7.072;2022-12-07T02:38:40;28.30;;;20.17;;
8139;SDS011;4111;50.972;7.072;2022-12-07T02:41:33;24.53;;;20.37;;
8139;SDS011;4111;50.972;7.072;2022-12-07T02:44:06;26.20;;;21.23;;
8139;SDS011;4111;50.972;7.072;2022-12-07T02:46:37;26.43;;;20.27;;
8139;SDS011;4111;50.972;7.072;2022-12-07T02:49:07;23.90;;;20.13;;
8139;SDS011;4111;50.972;7.072;2022-12-07T02:51:38;26.63;;;20.10;;
8139;SDS011;4111;50.972;7.072;2022-12-07T02:54:14;24.37;;;19.87;;
8139;SDS011;4111;50.972;7.072;2022-12-07T03:05:15;25.93;;;19.77;;
8139;SDS011;4111;50.972;7.072;2022-12-07T03:08:02;23.60;;;18.83;;
8139;SDS011;4111;50.972;7.072;2022-12-07T03:10:36;24.43;;;19.83;;
8139;SDS011;4111;50.972;7.072;2022-12-07T03:13:33;26.73;;;19.37;;
8139;SDS011;4111;50.972;7.072;2022-12-07T03:18:47;26.10;;;19.47;;
8139;SDS011;4111;50.972;7.072;2022-12-07T03:21:21;23.90;;;20.50;;
8139;SDS011;4111;50.972;7.072;2022-12-07T03:23:52;28.97;;;20.53;;
8139;SDS011;4111;50.972;7.072;2022-12-07T03:26:24;26.93;;;19.93;;
8139;SDS011;4111;50.972;7.072;2022-12-07T03:28:58;28.80;;;20.20;;
8139;SDS011;4111;50.972;7.072;2022-12-07T03:31:32;26.73;;;20.03;;
8139;SDS011;4111;50.972;7.072;2022-12-07T03:36:47;25.27;;;20.53;;
8139;SDS011;4111;50.972;7.072;2022-12-07T03:41:52;26.77;;;20.73;;
8139;SDS011;4111;50.972;7.072;2022-12-07T03:44:20;30.90;;;21.37;;
8139;SDS011;4111;50.972;7.072;2022-12-07T03:49:46;27.17;;;20.83;;
8139;SDS011;4111;50.972;7.072;2022-12-07T03:57:46;25.80;;;21.43;;
8139;SDS011;4111;50.972;7.072;2022-12-07T04:00:16;29.57;;;22.10;;
8139;SDS011;4111;50.972;7.072;2022-12-07T04:02:44;26.50;;;20.07;;
8139;SDS011;4111;50.972;7.072;2022-12-07T04:05:11;30.93;;;21.83;;
8139;SDS011;4111;50.972;7.072;2022-12-07T04:07:38;28.53;;;21.77;;
8139;SDS011;4111;50.972;7.072;2022-12-07T04:10:06;28.97;;;21.73;;
8139;SDS011;4111;50.972;7.072;2022-12-07T04:12:33;29.47;;;22.70;;
8139;SDS011;4111;50.972;7.072;2022-12-07T04:14:59;28.07;;;22.93;;
8139;SDS011;4111;50.972;7.072;2022-12-07T04:17:26;30.33;;;23.13;;
8139;SDS011;4111;50.972;7.072;2022-12-07T04:19:52;31.80;;;23.50;;
8139;SDS011;4111;50.972;7.072;2022-12-07T04:22:18;32.67;;;23.33;;
8139;SDS011;4111;50.972;7.072;2022-12-07T04:24:45;29.07;;;23.50;;
8139;SDS011;4111;50.972;7.072;2022-12-07T04:27:11;30.77;;;23.97;;
8139;SDS011;4111;50.972;7.072;2022-12-07T04:29:38;27.90;;;23.43;;
8139;SDS011;4111;50.972;7.072;2022-12-07T04:32:04;29.73;;;22.93;;
8139;SDS011;4111;50.972;7.072;2022-12-07T04:34:31;30.27;;;23.37;;
8139;SDS011;4111;50.972;7.072;2022-12-07T04:36:57;31.87;;;23.67;;
8139;SDS011;4111;50.972;7.072;2022-12-07T04:39:28;29.57;;;24.23;;
8139;SDS011;4111;50.972;7.072;2022-12-07T04:41:55;33.30;;;23.83;;
8139;SDS011;4111;50.972;7.072;2022-12-07T04:44:24;28.20;;;22.67;;
8139;SDS011;4111;50.972;7.072;2022-12-07T04:46:51;30.33;;;23.17;;
8139;SDS011;4111;50.972;7.072;2022-12-07T04:49:18;35.87;;;23.50;;
8139;SDS011;4111;50.972;7.072;2022-12-07T04:51:46;30.73;;;22.97;;
8139;SDS011;4111;50.972;7.072;2022-12-07T04:54:13;30.50;;;22.87;;
8139;SDS011;4111;50.972;7.072;2022-12-07T04:56:41;29.83;;;23.23;;
8139;SDS011;4111;50.972;7.072;2022-12-07T04:59:08;31.33;;;22.27;;
8139;SDS011;4111;50.972;7.072;2022-12-07T05:01:36;34.00;;;23.77;;
8139;SDS011;4111;50.972;7.072;2022-12-07T05:04:03;29.43;;;23.33;;
8139;SDS011;4111;50.972;7.072;2022-12-07T05:06:29;34.03;;;24.10;;
8139;SDS011;4111;50.972;7.072;2022-12-07T05:08:56;32.93;;;22.97;;
8139;SDS011;4111;50.972;7.072;2022-12-07T05:11:23;31.43;;;23.23;;
8139;SDS011;4111;50.972;7.072;2022-12-07T05:14:12;31.13;;;23.40;;
8139;SDS011;4111;50.972;7.072;2022-12-07T05:16:49;33.93;;;23.57;;
8139;SDS011;4111;50.972;7.072;2022-12-07T05:19:17;27.50;;;22.47;;
8139;SDS011;4111;50.972;7.072;2022-12-07T05:21:44;30.67;;;23.20;;
8139;SDS011;4111;50.972;7.072;2022-12-07T05:24:12;33.33;;;22.83;;
8139;SDS011;4111;50.972;7.072;2022-12-07T05:26:40;32.37;;;23.40;;
8139;SDS011;4111;50.972;7.072;2022-12-07T05:29:06;29.90;;;23.43;;
8139;SDS011;4111;50.972;7.072;2022-12-07T05:31:33;35.17;;;23.50;;
8139;SDS011;4111;50.972;7.072;2022-12-07T05:34:00;34.53;;;22.03;;
8139;SDS011;4111;50.972;7.072;2022-12-07T05:36:26;31.70;;;23.73;;
8139;SDS011;4111;50.972;7.072;2022-12-07T05:38:54;35.23;;;23.57;;
8139;SDS011;4111;50.972;7.072;2022-12-07T05:41:21;31.10;;;23.53;;
8139;SDS011;4111;50.972;7.072;2022-12-07T05:44:06;30.93;;;22.50;;
8139;SDS011;4111;50.972;7.072;2022-12-07T05:46:32;29.57;;;22.17;;
8139;SDS011;4111;50.972;7.072;2022-12-07T05:48:59;29.97;;;23.53;;
8139;SDS011;4111;50.972;7.072;2022-12-07T05:51:27;27.87;;;22.50;;
8139;SDS011;4111;50.972;7.072;2022-12-07T05:53:53;26.30;;;22.13;;
8139;SDS011;4111;50.972;7.072;2022-12-07T05:56:19;30.57;;;22.63;;
8139;SDS011;4111;50.972;7.072;2022-12-07T05:58:46;28.33;;;21.17;;
8139;SDS011;4111;50.972;7.072;2022-12-07T06:01:31;26.33;;;21.03;;
8139;SDS011;4111;50.972;7.072;2022-12-07T06:03:58;26.37;;;22.20;;
8139;SDS011;4111;50.972;7.072;2022-12-07T06:06:24;32.63;;;22.40;;
8139;SDS011;4111;50.972;7.072;2022-12-07T06:08:51;27.80;;;21.87;;
8139;SDS011;4111;50.972;7.072;2022-12-07T06:11:17;28.47;;;21.57;;
8139;SDS011;4111;50.972;7.072;2022-12-07T06:14:02;27.07;;;20.63;;
8139;SDS011;4111;50.972;7.072;2022-12-07T06:16:28;26.80;;;21.03;;
8139;SDS011;4111;50.972;7.072;2022-12-07T06:18:55;26.07;;;20.63;;
8139;SDS011;4111;50.972;7.072;2022-12-07T06:21:22;24.07;;;20.60;;
8139;SDS011;4111;50.972;7.072;2022-12-07T06:23:48;24.03;;;20.90;;
8139;SDS011;4111;50.972;7.072;2022-12-07T06:26:14;26.90;;;20.37;;
8139;SDS011;4111;50.972;7.072;2022-12-07T06:28:41;29.10;;;20.80;;
8139;SDS011;4111;50.972;7.072;2022-12-07T06:31:07;28.30;;;20.20;;
8139;SDS011;4111;50.972;7.072;2022-12-07T06:33:39;28.90;;;20.33;;
8139;SDS011;4111;50.972;7.072;2022-12-07T06:36:05;25.93;;;18.83;;
8139;SDS011;4111;50.972;7.072;2022-12-07T06:38:32;30.63;;;19.70;;
8139;SDS011;4111;50.972;7.072;2022-12-07T06:40:58;29.33;;;18.47;;
8139;SDS011;4111;50.972;7.072;2022-12-07T06:43:25;25.13;;;18.83;;
8139;SDS011;4111;50.972;7.072;2022-12-07T06:45:51;21.40;;;18.07;;
8139;SDS011;4111;50.972;7.072;2022-12-07T06:48:18;21.33;;;18.27;;
8139;SDS011;4111;50.972;7.072;2022-12-07T06:50:45;21.30;;;17.20;;
8139;SDS011;4111;50.972;7.072;2022-12-07T06:53:19;25.53;;;17.23;;
8139;SDS011;4111;50.972;7.072;2022-12-07T06:55:46;23.37;;;17.70;;
8139;SDS011;4111;50.972;7.072;2022-12-07T06:58:12;24.50;;;17.00;;
8139;SDS011;4111;50.972;7.072;2022-12-07T07:00:38;22.97;;;17.93;;
8139;SDS011;4111;50.972;7.072;2022-12-07T07:03:05;22.00;;;17.43;;
8139;SDS011;4111;50.972;7.072;2022-12-07T07:05:31;23.77;;;17.20;;
8139;SDS011;4111;50.972;7.072;2022-12-07T07:07:57;23.77;;;17.57;;
8139;SDS011;4111;50.972;7.072;2022-12-07T07:10:44;21.23;;;17.33;;
8139;SDS011;4111;50.972;7.072;2022-12-07T07:13:10;20.57;;;17.50;;
8139;SDS011;4111;50.972;7.072;2022-12-07T07:15:37;26.10;;;18.80;;
8139;SDS011;4111;50.972;7.072;2022-12-07T07:18:04;23.57;;;17.87;;
8139;SDS011;4111;50.972;7.072;2022-12-07T07:20:33;24.53;;;18.70;;
8139;SDS011;4111;50.972;7.072;2022-12-07T07:22:59;22.30;;;17.87;;
8139;SDS011;4111;50.972;7.072;2022-12-07T07:25:26;26.20;;;18.93;;
8139;SDS011;4111;50.972;7.072;2022-12-07T07:27:53;22.93;;;18.90;;
8139;SDS011;4111;50.972;7.072;2022-12-07T07:30:20;25.30;;;19.20;;
8139;SDS011;4111;50.972;7.072;2022-12-07T07:32:46;25.17;;;19.07;;
8139;SDS011;4111;50.972;7.072;2022-12-07T07:35:13;29.60;;;19.17;;
8139;SDS011;4111;50.972;7.072;2022-12-07T07:37:40;21.17;;;17.70;;
8139;SDS011;4111;50.972;7.072;2022-12-07T07:40:07;25.60;;;18.13;;
8139;SDS011;4111;50.972;7.072;2022-12-07T07:42:35;22.23;;;17.83;;
8139;SDS011;4111;50.972;7.072;2022-12-07T07:45:02;28.43;;;18.83;;
8139;SDS011;4111;50.972;7.072;2022-12-07T07:47:28;25.73;;;19.53;;
8139;SDS011;4111;50.972;7.072;2022-12-07T07:49:55;25.90;;;19.43;;
8139;SDS011;4111;50.972;7.072;2022-12-07T07:52:22;27.13;;;19.33;;
8139;SDS011;4111;50.972;7.072;2022-12-07T07:54:48;23.70;;;18.80;;
8139;SDS011;4111;50.972;7.072;2022-12-07T07:57:15;25.70;;;19.83;;
8139;SDS011;4111;50.972;7.072;2022-12-07T07:59:42;24.07;;;19.23;;
8139;SDS011;4111;50.972;7.072;2022-12-07T08:02:12;23.60;;;18.60;;
8139;SDS011;4111;50.972;7.072;2022-12-07T08:04:41;24.80;;;19.20;;
8139;SDS011;4111;50.972;7.072;2022-12-07T08:07:08;27.30;;;18.83;;
8139;SDS011;4111;50.972;7.072;2022-12-07T08:09:34;28.07;;;19.60;;
8139;SDS011;4111;50.972;7.072;2022-12-07T08:12:01;21.40;;;17.43;;
8139;SDS011;4111;50.972;7.072;2022-12-07T08:14:28;27.10;;;19.13;;
8139;SDS011;4111;50.972;7.072;2022-12-07T08:16:55;21.90;;;18.73;;
8139;SDS011;4111;50.972;7.072;2022-12-07T08:19:21;24.40;;;20.63;;
8139;SDS011;4111;50.972;7.072;2022-12-07T08:21:48;25.67;;;20.23;;
8139;SDS011;4111;50.972;7.072;2022-12-07T08:24:14;25.00;;;20.50;;
8139;SDS011;4111;50.972;7.072;2022-12-07T08:26:41;29.80;;;20.63;;
8139;SDS011;4111;50.972;7.072;2022-12-07T08:29:08;29.13;;;23.60;;
8139;SDS011;4111;50.972;7.072;2022-12-07T08:31:35;27.77;;;21.90;;
8139;SDS011;4111;50.972;7.072;2022-12-07T08:34:02;30.67;;;22.07;;
8139;SDS011;4111;50.972;7.072;2022-12-07T08:36:28;27.17;;;21.80;;
8139;SDS011;4111;50.972;7.072;2022-12-07T08:38:55;29.90;;;20.50;;
8139;SDS011;4111;50.972;7.072;2022-12-07T08:41:41;25.70;;;20.53;;
8139;SDS011;4111;50.972;7.072;2022-12-07T08:44:08;30.83;;;21.37;;
8139;SDS011;4111;50.972;7.072;2022-12-07T08:46:38;25.23;;;21.53;;
8139;SDS011;4111;50.972;7.072;2022-12-07T08:49:12;27.03;;;21.27;;
8139;SDS011;4111;50.972;7.072;2022-12-07T08:51:41;26.80;;;20.13;;
8139;SDS011;4111;50.972;7.072;2022-12-07T08:54:09;25.63;;;18.63;;
8139;SDS011;4111;50.972;7.072;2022-12-07T08:56:39;23.57;;;17.97;;
8139;SDS011;4111;50.972;7.072;2022-12-07T08:59:05;26.83;;;19.40;;
8139;SDS011;4111;50.972;7.072;2022-12-07T09:01:33;21.83;;;18.17;;
8139;SDS011;4111;50.972;7.072;2022-12-07T09:03:59;21.87;;;18.27;;
8139;SDS011;4111;50.972;7.072;2022-12-07T09:06:26;30.63;;;18.07;;
8139;SDS011;4111;50.972;7.072;2022-12-07T09:08:54;22.23;;;18.33;;
8139;SDS011;4111;50.972;7.072;2022-12-07T09:11:24;24.33;;;18.70;;
8139;SDS011;4111;50.972;7.072;2022-12-07T09:13:54;20.57;;;17.43;;
8139;SDS011;4111;50.972;7.072;2022-12-07T09:16:21;19.37;;;17.00;;
8139;SDS011;4111;50.972;7.072;2022-12-07T09:18:47;24.10;;;17.47;;
8139;SDS011;4111;50.972;7.072;2022-12-07T09:21:14;22.87;;;16.37;;
8139;SDS011;4111;50.972;7.072;2022-12-07T09:23:41;20.53;;;15.57;;
8139;SDS011;4111;50.972;7.072;2022-12-07T09:26:08;18.63;;;16.17;;
8139;SDS011;4111;50.972;7.072;2022-12-07T09:28:36;22.23;;;15.83;;
8139;SDS011;4111;50.972;7.072;2022-12-07T09:31:03;22.90;;;18.77;;
8139;SDS011;4111;50.972;7.072;2022-12-07T09:33:54;17.40;;;15.33;;
8139;SDS011;4111;50.972;7.072;2022-12-07T09:36:25;18.50;;;14.60;;
8139;SDS011;4111;50.972;7.072;2022-12-07T09:38:52;18.20;;;13.57;;
8139;SDS011;4111;50.972;7.072;2022-12-07T09:41:19;20.13;;;15.17;;
8139;SDS011;4111;50.972;7.072;2022-12-07T09:43:46;20.70;;;14.37;;
8139;SDS011;4111;50.972;7.072;2022-12-07T09:46:14;18.37;;;13.50;;
8139;SDS011;4111;50.972;7.072;2022-12-07T09:48:43;21.47;;;14.17;;
8139;SDS011;4111;50.972;7.072;2022-12-07T09:51:14;18.00;;;12.80;;
8139;SDS011;4111;50.972;7.072;2022-12-07T09:53:49;14.40;;;12.57;;
8139;SDS011;4111;50.972;7.072;2022-12-07T09:56:16;18.13;;;13.03;;
8139;SDS011;4111;50.972;7.072;2022-12-07T09:58:45;17.00;;;12.93;;
8139;SDS011;4111;50.972;7.072;2022-12-07T10:01:13;17.83;;;12.80;;
8139;SDS011;4111;50.972;7.072;2022-12-07T10:03:44;17.20;;;13.20;;
8139;SDS011;4111;50.972;7.072;2022-12-07T10:06:15;17.57;;;13.10;;
8139;SDS011;4111;50.972;7.072;2022-12-07T10:08:41;16.07;;;12.67;;
8139;SDS011;4111;50.972;7.072;2022-12-07T10:11:10;19.53;;;12.97;;
8139;SDS011;4111;50.972;7.072;2022-12-07T10:13:38;20.97;;;16.27;;
8139;SDS011;4111;50.972;7.072;2022-12-07T10:16:25;18.60;;;13.67;;
8139;SDS011;4111;50.972;7.072;2022-12-07T10:22:11;19.37;;;13.57;;
8139;SDS011;4111;50.972;7.072;2022-12-07T10:24:40;14.27;;;11.67;;
8139;SDS011;4111;50.972;7.072;2022-12-07T10:27:19;14.33;;;11.03;;
8139;SDS011;4111;50.972;7.072;2022-12-07T10:29:48;17.33;;;11.40;;
8139;SDS011;4111;50.972;7.072;2022-12-07T10:34:44;17.90;;;11.10;;
8139;SDS011;4111;50.972;7.072;2022-12-07T10:37:26;12.83;;;10.50;;
8139;SDS011;4111;50.972;7.072;2022-12-07T10:39:57;12.60;;;10.47;;
8139;SDS011;4111;50.972;7.072;2022-12-07T10:42:27;12.07;;;10.27;;
8139;SDS011;4111;50.972;7.072;2022-12-07T10:45:14;14.03;;;9.97;;
8139;SDS011;4111;50.972;7.072;2022-12-07T10:47:59;11.60;;;9.97;;
8139;SDS011;4111;50.972;7.072;2022-12-07T10:53:38;16.67;;;10.50;;
8139;SDS011;4111;50.972;7.072;2022-12-07T10:59:03;13.73;;;10.03;;
8139;SDS011;4111;50.972;7.072;2022-12-07T11:01:33;14.93;;;10.30;;
8139;SDS011;4111;50.972;7.072;2022-12-07T11:07:07;13.57;;;9.63;;
8139;SDS011;4111;50.972;7.072;2022-12-07T11:12:47;19.27;;;11.53;;
8139;SDS011;4111;50.972;7.072;2022-12-07T11:18:22;16.67;;;9.63;;
8139;SDS011;4111;50.972;7.072;2022-12-07T11:21:27;16.47;;;9.30;;
8139;SDS011;4111;50.972;7.072;2022-12-07T11:24:30;11.00;;;8.70;;
8139;SDS011;4111;50.972;7.072;2022-12-07T11:26:58;18.63;;;9.80;;
8139;SDS011;4111;50.972;7.072;2022-12-07T11:32:04;10.77;;;9.67;;
8139;SDS011;4111;50.972;7.072;2022-12-07T11:34:52;15.00;;;10.00;;
8139;SDS011;4111;50.972;7.072;2022-12-07T11:37:21;11.53;;;9.10;;
8139;SDS011;4111;50.972;7.072;2022-12-07T11:40:02;15.23;;;8.57;;
8139;SDS011;4111;50.972;7.072;2022-12-07T11:42:43;11.77;;;8.87;;
8139;SDS011;4111;50.972;7.072;2022-12-07T11:45:37;12.47;;;8.63;;
8139;SDS011;4111;50.972;7.072;2022-12-07T11:48:14;13.23;;;9.63;;
8139;SDS011;4111;50.972;7.072;2022-12-07T11:50:50;11.37;;;7.87;;
8139;SDS011;4111;50.972;7.072;2022-12-07T11:53:20;14.77;;;8.57;;
8139;SDS011;4111;50.972;7.072;2022-12-07T11:58:33;14.00;;;8.73;;
8139;SDS011;4111;50.972;7.072;2022-12-07T12:01:13;11.53;;;7.63;;
8139;SDS011;4111;50.972;7.072;2022-12-07T12:04:13;10.63;;;8.23;;
8139;SDS011;4111;50.972;7.072;2022-12-07T12:06:50;12.87;;;8.57;;
8139;SDS011;4111;50.972;7.072;2022-12-07T12:09:17;15.93;;;8.13;;
8139;SDS011;4111;50.972;7.072;2022-12-07T12:20:45;10.33;;;6.50;;
8139;SDS011;4111;50.972;7.072;2022-12-07T12:23:23;14.80;;;6.97;;
8139;SDS011;4111;50.972;7.072;2022-12-07T12:25:57;9.70;;;6.90;;
8139;SDS011;4111;50.972;7.072;2022-12-07T12:28:36;12.53;;;6.63;;
8139;SDS011;4111;50.972;7.072;2022-12-07T12:33:48;12.97;;;7.10;;
8139;SDS011;4111;50.972;7.072;2022-12-07T12:46:56;9.63;;;6.80;;
8139;SDS011;4111;50.972;7.072;2022-12-07T12:51:55;11.70;;;7.57;;
8139;SDS011;4111;50.972;7.072;2022-12-07T12:54:27;11.33;;;7.37;;
8139;SDS011;4111;50.972;7.072;2022-12-07T12:57:09;13.00;;;8.20;;
8139;SDS011;4111;50.972;7.072;2022-12-07T13:07:52;12.23;;;8.43;;
8139;SDS011;4111;50.972;7.072;2022-12-07T13:17:58;12.70;;;8.17;;
8139;SDS011;4111;50.972;7.072;2022-12-07T13:20:40;15.50;;;8.27;;
8139;SDS011;4111;50.972;7.072;2022-12-07T13:23:09;15.30;;;8.53;;
8139;SDS011;4111;50.972;7.072;2022-12-07T13:25:38;16.00;;;7.10;;
8139;SDS011;4111;50.972;7.072;2022-12-07T13:28:18;12.37;;;6.97;;
8139;SDS011;4111;50.972;7.072;2022-12-07T13:30:48;15.53;;;7.93;;
8139;SDS011;4111;50.972;7.072;2022-12-07T13:33:35;11.40;;;7.30;;
8139;SDS011;4111;50.972;7.072;2022-12-07T13:36:02;9.63;;;7.30;;
8139;SDS011;4111;50.972;7.072;2022-12-07T13:38:31;14.07;;;7.27;;
8139;SDS011;4111;50.972;7.072;2022-12-07T13:41:20;10.93;;;6.53;;
8139;SDS011;4111;50.972;7.072;2022-12-07T13:43:52;12.10;;;6.63;;
8139;SDS011;4111;50.972;7.072;2022-12-07T13:47:19;13.87;;;7.00;;
8139;SDS011;4111;50.972;7.072;2022-12-07T13:49:23;13.03;;;7.70;;
8139;SDS011;4111;50.972;7.072;2022-12-07T13:51:52;10.10;;;7.83;;
8139;SDS011;4111;50.972;7.072;2022-12-07T13:54:19;12.73;;;8.60;;
8139;SDS011;4111;50.972;7.072;2022-12-07T13:56:48;12.63;;;7.53;;
8139;SDS011;4111;50.972;7.072;2022-12-07T13:59:21;13.20;;;8.00;;
8139;SDS011;4111;50.972;7.072;2022-12-07T14:01:50;14.17;;;8.43;;
8139;SDS011;4111;50.972;7.072;2022-12-07T14:06:49;15.43;;;8.67;;
8139;SDS011;4111;50.972;7.072;2022-12-07T14:09:18;11.37;;;8.30;;
8139;SDS011;4111;50.972;7.072;2022-12-07T14:11:48;23.73;;;14.33;;
8139;SDS011;4111;50.972;7.072;2022-12-07T14:14:17;12.33;;;8.40;;
8139;SDS011;4111;50.972;7.072;2022-12-07T14:19:45;11.50;;;7.60;;
8139;SDS011;4111;50.972;7.072;2022-12-07T14:22:18;17.37;;;8.77;;
8139;SDS011;4111;50.972;7.072;2022-12-07T14:24:47;15.67;;;8.53;;
8139;SDS011;4111;50.972;7.072;2022-12-07T14:27:18;12.17;;;7.80;;
8139;SDS011;4111;50.972;7.072;2022-12-07T14:29:47;32.00;;;15.77;;
8139;SDS011;4111;50.972;7.072;2022-12-07T14:32:24;15.83;;;8.60;;
8139;SDS011;4111;50.972;7.072;2022-12-07T14:34:56;9.00;;;6.77;;
8139;SDS011;4111;50.972;7.072;2022-12-07T14:37:26;11.60;;;7.87;;
8139;SDS011;4111;50.972;7.072;2022-12-07T14:39:54;15.80;;;8.13;;
8139;SDS011;4111;50.972;7.072;2022-12-07T14:42:21;12.70;;;7.57;;
8139;SDS011;4111;50.972;7.072;2022-12-07T14:44:50;14.57;;;7.20;;
8139;SDS011;4111;50.972;7.072;2022-12-07T14:47:17;9.57;;;7.87;;
8139;SDS011;4111;50.972;7.072;2022-12-07T14:50:03;11.87;;;7.37;;
8139;SDS011;4111;50.972;7.072;2022-12-07T14:52:32;13.03;;;7.80;;
8139;SDS011;4111;50.972;7.072;2022-12-07T14:55:21;12.67;;;7.83;;
8139;SDS011;4111;50.972;7.072;2022-12-07T14:57:51;15.40;;;7.67;;
8139;SDS011;4111;50.972;7.072;2022-12-07T15:00:18;13.43;;;7.57;;
8139;SDS011;4111;50.972;7.072;2022-12-07T15:02:46;11.27;;;7.70;;
8139;SDS011;4111;50.972;7.072;2022-12-07T15:05:13;11.17;;;7.33;;
8139;SDS011;4111;50.972;7.072;2022-12-07T15:07:42;15.00;;;8.63;;
8139;SDS011;4111;50.972;7.072;2022-12-07T15:12:48;14.13;;;8.83;;
8139;SDS011;4111;50.972;7.072;2022-12-07T15:15:15;13.20;;;8.30;;
8139;SDS011;4111;50.972;7.072;2022-12-07T15:17:43;14.73;;;8.67;;
8139;SDS011;4111;50.972;7.072;2022-12-07T15:20:11;14.30;;;8.10;;
8139;SDS011;4111;50.972;7.072;2022-12-07T15:22:39;15.70;;;8.43;;
8139;SDS011;4111;50.972;7.072;2022-12-07T15:25:06;12.17;;;8.17;;
8139;SDS011;4111;50.972;7.072;2022-12-07T15:27:33;18.00;;;10.20;;
8139;SDS011;4111;50.972;7.072;2022-12-07T15:29:59;15.00;;;8.60;;
8139;SDS011;4111;50.972;7.072;2022-12-07T15:32:25;13.00;;;9.23;;
8139;SDS011;4111;50.972;7.072;2022-12-07T15:34:52;16.57;;;9.70;;
8139;SDS011;4111;50.972;7.072;2022-12-07T15:37:18;14.63;;;9.13;;
8139;SDS011;4111;50.972;7.072;2022-12-07T15:39:45;10.87;;;6.00;;
8139;SDS011;4111;50.972;7.072;2022-12-07T15:42:11;9.10;;;4.10;;
8139;SDS011;4111;50.972;7.072;2022-12-07T15:44:38;6.30;;;4.70;;
8139;SDS011;4111;50.972;7.072;2022-12-07T15:47:23;5.93;;;4.20;;
8139;SDS011;4111;50.972;7.072;2022-12-07T15:49:49;8.83;;;4.40;;
8139;SDS011;4111;50.972;7.072;2022-12-07T15:52:16;6.10;;;3.83;;
8139;SDS011;4111;50.972;7.072;2022-12-07T15:54:42;7.17;;;3.80;;
8139;SDS011;4111;50.972;7.072;2022-12-07T15:57:09;4.93;;;3.50;;
8139;SDS011;4111;50.972;7.072;2022-12-07T15:59:35;6.87;;;3.40;;
8139;SDS011;4111;50.972;7.072;2022-12-07T16:02:01;4.60;;;3.10;;
8139;SDS011;4111;50.972;7.072;2022-12-07T16:04:28;4.83;;;3.13;;
8139;SDS011;4111;50.972;7.072;2022-12-07T16:06:55;6.83;;;4.50;;
8139;SDS011;4111;50.972;7.072;2022-12-07T16:09:22;7.80;;;4.57;;
8139;SDS011;4111;50.972;7.072;2022-12-07T16:11:48;8.07;;;5.67;;
8139;SDS011;4111;50.972;7.072;2022-12-07T16:14:16;7.77;;;5.43;;
8139;SDS011;4111;50.972;7.072;2022-12-07T16:16:43;6.80;;;4.93;;
8139;SDS011;4111;50.972;7.072;2022-12-07T16:19:09;10.83;;;4.53;;
8139;SDS011;4111;50.972;7.072;2022-12-07T16:21:37;7.70;;;4.53;;
8139;SDS011;4111;50.972;7.072;2022-12-07T16:24:03;6.83;;;4.50;;
8139;SDS011;4111;50.972;7.072;2022-12-07T16:26:31;8.80;;;5.43;;
8139;SDS011;4111;50.972;7.072;2022-12-07T16:28:57;6.23;;;4.87;;
8139;SDS011;4111;50.972;7.072;2022-12-07T16:31:25;8.53;;;6.40;;
8139;SDS011;4111;50.972;7.072;2022-12-07T16:33:53;9.47;;;6.53;;
8139;SDS011;4111;50.972;7.072;2022-12-07T16:36:21;10.43;;;7.60;;
8139;SDS011;4111;50.972;7.072;2022-12-07T16:39:10;11.33;;;7.53;;
8139;SDS011;4111;50.972;7.072;2022-12-07T16:41:36;11.33;;;7.50;;
8139;SDS011;4111;50.972;7.072;2022-12-07T16:44:05;8.23;;;6.93;;
8139;SDS011;4111;50.972;7.072;2022-12-07T16:46:33;11.47;;;6.77;;
8139;SDS011;4111;50.972;7.072;2022-12-07T16:49:02;10.83;;;7.37;;
8139;SDS011;4111;50.972;7.072;2022-12-07T16:51:29;9.37;;;7.20;;
8139;SDS011;4111;50.972;7.072;2022-12-07T16:53:56;8.87;;;6.63;;
8139;SDS011;4111;50.972;7.072;2022-12-07T16:56:22;10.47;;;7.10;;
8139;SDS011;4111;50.972;7.072;2022-12-07T16:58:49;9.30;;;7.60;;
8139;SDS011;4111;50.972;7.072;2022-12-07T17:01:16;9.43;;;7.47;;
8139;SDS011;4111;50.972;7.072;2022-12-07T17:03:45;12.03;;;8.70;;
8139;SDS011;4111;50.972;7.072;2022-12-07T17:06:16;10.17;;;7.97;;
8139;SDS011;4111;50.972;7.072;2022-12-07T17:08:44;10.40;;;7.57;;
8139;SDS011;4111;50.972;7.072;2022-12-07T17:11:15;10.57;;;7.40;;